createdAt,value
2022-12-07T00:00:38.297Z,5.70
2022-12-07T00:03:08.128Z,5.70
2022-12-07T00:05:36.895Z,5.70
2022-12-07T00:08:05.817Z,5.60
2022-12-07T00:10:35.663Z,5.60
2022-12-07T00:13:05.340Z,5.70
2022-12-07T00:15:36.838Z,5.80
2022-12-07T00:18:06.904Z,5.70
2022-12-07T00:20:35.672Z,5.70
2022-12-07T00:23:05.453Z,5.80
2022-12-07T00:25:34.172Z,5.50
2022-12-07T00:28:03.084Z,5.40
2022-12-07T00:30:31.527Z,5.50
2022-12-07T00:33:00.704Z,5.50
2022-12-07T00:35:30.643Z,5.50
2022-12-07T00:37:59.276Z,5.40
2022-12-07T00:40:27.956Z,5.30
2022-12-07T00:42:56.593Z,5.30
2022-12-07T00:45:25.360Z,5.30
2022-12-07T00:47:54.366Z,5.10
2022-12-07T00:50:23.013Z,5.30
2022-12-07T00:52:53.142Z,5.20
2022-12-07T00:55:21.776Z,5.10
2022-12-07T00:57:51.442Z,5.20
2022-12-07T01:00:21.075Z,4.90
2022-12-07T01:02:49.748Z,5.10
2022-12-07T01:05:20.570Z,5.00
2022-12-07T01:07:49.560Z,5.20
2022-12-07T01:10:20.043Z,4.90
2022-12-07T01:12:49.001Z,5.10
2022-12-07T01:15:17.747Z,5.00
2022-12-07T01:17:46.589Z,5.10
2022-12-07T01:20:16.741Z,4.80
2022-12-07T01:22:46.032Z,5.10
2022-12-07T01:25:15.751Z,5.00
2022-12-07T01:27:45.788Z,4.90
2022-12-07T01:30:18.008Z,4.80
2022-12-07T01:32:46.920Z,5.00
2022-12-07T01:35:15.388Z,4.80
2022-12-07T01:37:44.126Z,5.00
2022-12-07T01:40:13.347Z,4.80
2022-12-07T01:42:41.979Z,4.60
2022-12-07T01:45:40.100Z,4.80
2022-12-07T01:48:12.797Z,4.60
2022-12-07T01:50:44.041Z,4.60
2022-12-07T01:53:13.939Z,4.80
2022-12-07T01:55:45.883Z,4.60
2022-12-07T01:58:15.944Z,4.70
2022-12-07T02:00:44.423Z,4.60
2022-12-07T02:03:20.143Z,4.60
2022-12-07T02:05:52.373Z,4.80
2022-12-07T02:08:22.375Z,4.60
2022-12-07T02:10:51.070Z,4.70
2022-12-07T02:13:22.735Z,4.70
2022-12-07T02:16:09.086Z,4.60
2022-12-07T02:18:53.507Z,4.60
2022-12-07T02:21:30.680Z,4.50
2022-12-07T02:24:18.726Z,4.50
2022-12-07T02:27:11.262Z,4.40
2022-12-07T02:29:47.180Z,4.50
2022-12-07T02:32:23.005Z,4.40
2022-12-07T02:34:56.728Z,4.40
2022-12-07T02:37:38.164Z,4.40
2022-12-07T02:40:12.811Z,4.30
2022-12-07T02:42:47.962Z,4.30
2022-12-07T02:45:22.348Z,4.40
2022-12-07T02:47:53.841Z,4.30
2022-12-07T02:50:24.474Z,4.10
2022-12-07T02:52:52.857Z,4.20
2022-12-07T02:55:25.487Z,4.30
2022-12-07T02:58:07.688Z,4.20
2022-12-07T03:00:47.115Z,4.20
2022-12-07T03:03:16.852Z,4.20
2022-12-07T03:06:12.597Z,4.10
2022-12-07T03:08:50.384Z,4.20
2022-12-07T03:11:25.353Z,4.10
2022-12-07T03:14:00.902Z,4.30
2022-12-07T03:16:35.451Z,4.30
2022-12-07T03:19:09.746Z,4.00
2022-12-07T03:21:44.944Z,4.30
2022-12-07T03:24:16.441Z,4.30
2022-12-07T03:26:49.525Z,4.10
2022-12-07T03:29:34.217Z,4.20
2022-12-07T03:32:10.828Z,4.30
2022-12-07T03:34:46.417Z,4.20
2022-12-07T03:37:21.044Z,4.00
2022-12-07T03:40:01.335Z,4.10
2022-12-07T03:42:30.881Z,4.20
2022-12-07T03:44:59.467Z,4.00
2022-12-07T03:47:34.855Z,4.20
2022-12-07T03:50:10.567Z,4.30
2022-12-07T03:52:44.317Z,4.40
2022-12-07T03:55:16.095Z,4.30
2022-12-07T03:57:47.005Z,4.10
2022-12-07T04:00:16.534Z,4.00
2022-12-07T04:02:46.416Z,4.40
2022-12-07T04:05:15.433Z,4.40
2022-12-07T04:07:44.657Z,4.40
2022-12-07T04:10:13.796Z,4.40
2022-12-07T04:12:42.681Z,4.50
2022-12-07T04:15:11.802Z,4.40
2022-12-07T04:17:41.319Z,4.50
2022-12-07T04:20:12.950Z,4.40
2022-12-07T04:22:43.028Z,4.50
2022-12-07T04:25:11.948Z,4.40
2022-12-07T04:27:40.842Z,4.50
2022-12-07T04:30:10.317Z,4.60
2022-12-07T04:32:39.975Z,4.60
2022-12-07T04:35:10.601Z,4.60
2022-12-07T04:37:40.741Z,4.60
2022-12-07T04:40:12.144Z,4.40
2022-12-07T04:42:40.745Z,4.70
2022-12-07T04:45:10.463Z,4.60
2022-12-07T04:47:38.915Z,4.70
2022-12-07T04:50:08.560Z,4.80
2022-12-07T04:52:38.305Z,4.70
2022-12-07T04:55:07.272Z,4.80
2022-12-07T04:57:35.677Z,4.70
2022-12-07T05:00:05.503Z,4.70
2022-12-07T05:02:34.401Z,4.70
2022-12-07T05:05:02.727Z,4.70
2022-12-07T05:07:31.354Z,4.60
2022-12-07T05:10:01.243Z,4.80
2022-12-07T05:12:29.719Z,4.80
2022-12-07T05:14:58.233Z,4.70
2022-12-07T05:17:26.625Z,4.80
2022-12-07T05:19:55.063Z,4.80
2022-12-07T05:22:23.533Z,4.70
2022-12-07T05:24:51.873Z,4.70
2022-12-07T05:27:21.706Z,4.80
2022-12-07T05:29:51.378Z,4.70
2022-12-07T05:32:20.447Z,4.80
2022-12-07T05:34:52.044Z,4.70
2022-12-07T05:37:21.660Z,4.80
2022-12-07T05:39:50.087Z,4.90
2022-12-07T05:42:18.393Z,4.80
2022-12-07T05:44:48.796Z,5.00
2022-12-07T05:47:18.112Z,4.80
2022-12-07T05:49:46.747Z,4.80
2022-12-07T05:52:18.158Z,4.90
2022-12-07T05:54:46.978Z,4.90
2022-12-07T05:57:15.400Z,4.90
2022-12-07T05:59:42.940Z,5.00
2022-12-07T06:02:14.299Z,4.90
2022-12-07T06:04:45.456Z,5.00
2022-12-07T06:07:15.514Z,5.00
2022-12-07T06:09:44.006Z,4.90
2022-12-07T06:12:30.769Z,4.80
2022-12-07T06:15:01.927Z,4.80
2022-12-07T06:17:31.778Z,4.90
2022-12-07T06:20:00.443Z,4.90
2022-12-07T06:22:29.421Z,4.90
2022-12-07T06:24:57.867Z,5.00
2022-12-07T06:27:26.174Z,4.80
2022-12-07T06:29:55.808Z,4.80
2022-12-07T06:32:26.442Z,4.80
2022-12-07T06:34:56.142Z,5.00
2022-12-07T06:37:30.336Z,4.70
2022-12-07T06:40:00.153Z,5.00
2022-12-07T06:42:31.273Z,4.90
2022-12-07T06:45:00.021Z,4.90
2022-12-07T06:47:46.205Z,5.00
2022-12-07T06:50:17.285Z,4.90
2022-12-07T06:52:45.620Z,4.80
2022-12-07T06:55:14.265Z,5.10
2022-12-07T06:57:43.105Z,5.00
2022-12-07T07:00:18.409Z,5.10
2022-12-07T07:02:50.015Z,5.10
2022-12-07T07:05:22.584Z,5.10
2022-12-07T07:10:43.252Z,5.10
2022-12-07T07:13:14.116Z,5.00
2022-12-07T07:15:43.218Z,4.90
2022-12-07T07:18:11.917Z,5.00
2022-12-07T07:20:42.593Z,4.90
2022-12-07T07:23:12.549Z,4.90
2022-12-07T07:25:42.064Z,5.10
2022-12-07T07:28:10.464Z,5.00
2022-12-07T07:30:39.268Z,5.20
2022-12-07T07:33:08.665Z,5.10
2022-12-07T07:35:38.131Z,5.00
2022-12-07T07:38:08.109Z,4.90
2022-12-07T07:40:38.336Z,5.10
2022-12-07T07:43:06.784Z,5.00
2022-12-07T07:45:35.280Z,5.10
2022-12-07T07:48:03.624Z,5.10
2022-12-07T07:50:32.798Z,5.10
2022-12-07T07:53:01.132Z,5.00
2022-12-07T07:55:30.812Z,5.00
2022-12-07T07:58:00.159Z,5.20
2022-12-07T08:00:28.584Z,5.20
2022-12-07T08:02:57.118Z,5.10
2022-12-07T08:05:25.600Z,5.20
2022-12-07T08:07:55.084Z,5.00
2022-12-07T08:10:23.682Z,5.20
2022-12-07T08:13:10.824Z,5.10
2022-12-07T08:15:41.195Z,5.20
2022-12-07T08:18:09.811Z,5.20
2022-12-07T08:20:39.419Z,5.10
2022-12-07T08:23:08.803Z,5.20
2022-12-07T08:25:37.375Z,5.30
2022-12-07T08:28:07.524Z,5.30
2022-12-07T08:30:35.947Z,5.30
2022-12-07T08:33:04.557Z,5.30
2022-12-07T08:35:38.645Z,5.30
2022-12-07T08:38:07.145Z,5.20
2022-12-07T08:40:36.413Z,5.20
2022-12-07T08:43:04.711Z,5.10
2022-12-07T08:45:36.684Z,5.40
2022-12-07T08:48:09.589Z,5.40
2022-12-07T08:50:42.046Z,5.50
2022-12-07T08:53:12.847Z,5.60
2022-12-07T08:55:41.375Z,5.50
2022-12-07T08:58:09.781Z,5.70
2022-12-07T09:00:40.333Z,5.60
2022-12-07T09:03:08.988Z,5.70
2022-12-07T09:05:39.825Z,5.80
2022-12-07T09:08:11.257Z,5.70
2022-12-07T09:10:39.829Z,5.80
2022-12-07T09:13:08.604Z,6.00
2022-12-07T09:15:39.425Z,6.20
2022-12-07T09:18:07.930Z,6.10
2022-12-07T09:20:36.420Z,6.20
2022-12-07T09:23:08.412Z,6.40
2022-12-07T09:25:37.263Z,6.50
2022-12-07T09:28:06.352Z,6.50
2022-12-07T09:30:52.600Z,6.60
2022-12-07T09:33:25.437Z,6.40
2022-12-07T09:35:54.299Z,6.60
2022-12-07T09:38:25.425Z,6.60
2022-12-07T09:40:54.412Z,6.80
2022-12-07T09:43:25.485Z,6.70
2022-12-07T09:45:56.894Z,6.70
2022-12-07T09:48:32.176Z,6.70
2022-12-07T09:51:02.746Z,6.80
2022-12-07T09:53:35.356Z,7.00
2022-12-07T09:56:04.613Z,7.00
2022-12-07T09:58:35.493Z,7.00
2022-12-07T10:01:12.860Z,6.90
2022-12-07T10:03:50.905Z,7.00
2022-12-07T10:06:20.284Z,7.00
2022-12-07T10:08:48.888Z,7.00
2022-12-07T10:11:17.424Z,7.20
2022-12-07T10:13:49.785Z,7.10
2022-12-07T10:16:39.399Z,6.90
2022-12-07T10:19:24.583Z,7.20
2022-12-07T10:22:11.772Z,7.10
2022-12-07T10:24:42.037Z,7.20
2022-12-07T10:27:21.786Z,7.30
2022-12-07T10:29:52.396Z,7.30
2022-12-07T10:32:35.127Z,7.30
2022-12-07T10:35:26.979Z,7.30
2022-12-07T10:37:58.833Z,7.30
2022-12-07T10:40:34.992Z,7.40
2022-12-07T10:43:16.210Z,7.30
2022-12-07T10:46:26.945Z,7.30
2022-12-07T10:49:06.891Z,7.40
2022-12-07T10:51:45.105Z,7.40
2022-12-07T10:54:18.703Z,7.40
2022-12-07T10:57:10.192Z,7.50
2022-12-07T11:00:10.874Z,7.60
2022-12-07T11:03:09.013Z,7.80
2022-12-07T11:05:47.423Z,7.60
2022-12-07T11:08:28.108Z,7.60
2022-12-07T11:11:02.577Z,7.50
2022-12-07T11:13:42.661Z,7.60
2022-12-07T11:16:23.487Z,7.60
2022-12-07T11:19:01.403Z,7.60
2022-12-07T11:21:37.259Z,7.50
2022-12-07T11:24:15.681Z,7.50
2022-12-07T11:26:56.457Z,7.60
2022-12-07T11:29:42.070Z,7.50
2022-12-07T11:32:20.741Z,7.70
2022-12-07T11:35:03.282Z,7.60
2022-12-07T11:37:36.545Z,7.50
2022-12-07T11:40:22.599Z,7.70
2022-12-07T11:42:55.608Z,7.70
2022-12-07T11:45:28.541Z,7.70
2022-12-07T11:48:01.795Z,7.60
2022-12-07T11:50:38.471Z,7.70
2022-12-07T11:53:16.602Z,7.80
2022-12-07T11:55:52.603Z,7.80
2022-12-07T11:58:38.866Z,7.80
2022-12-07T12:01:17.895Z,7.90
2022-12-07T12:03:53.111Z,8.00
2022-12-07T12:06:23.856Z,7.80
2022-12-07T12:15:09.579Z,8.40
2022-12-07T12:18:06.198Z,8.40
2022-12-07T12:20:42.904Z,8.50
2022-12-07T12:23:17.553Z,8.60
2022-12-07T12:25:49.186Z,8.70
2022-12-07T12:28:26.999Z,8.60
2022-12-07T12:31:15.321Z,8.80
2022-12-07T12:33:49.010Z,8.70
2022-12-07T12:36:22.029Z,8.60
2022-12-07T12:38:53.021Z,8.70
2022-12-07T12:42:08.538Z,8.60
2022-12-07T12:44:44.285Z,8.60
2022-12-07T12:47:56.008Z,8.60
2022-12-07T12:50:28.453Z,8.60
2022-12-07T12:53:23.156Z,8.50
2022-12-07T12:56:30.386Z,8.70
2022-12-07T12:59:24.471Z,8.60
2022-12-07T13:01:57.551Z,8.50
2022-12-07T13:04:55.546Z,8.50
2022-12-07T13:07:55.733Z,8.40
2022-12-07T13:10:39.996Z,8.30
2022-12-07T13:13:34.877Z,8.40
2022-12-07T13:16:42.050Z,8.20
2022-12-07T13:20:00.689Z,8.20
2022-12-07T13:22:49.126Z,8.20
2022-12-07T13:25:34.103Z,8.20
2022-12-07T13:28:09.665Z,8.20
2022-12-07T13:30:48.030Z,8.00
2022-12-07T13:33:19.741Z,8.00
2022-12-07T13:35:48.904Z,8.00
2022-12-07T13:38:30.149Z,8.00
2022-12-07T13:41:08.107Z,8.00
2022-12-07T13:43:46.123Z,7.80
2022-12-07T13:46:19.600Z,7.70
2022-12-07T13:48:50.779Z,7.70
2022-12-07T13:51:22.599Z,7.70
2022-12-07T13:53:54.748Z,7.60
2022-12-07T13:56:36.335Z,7.70
2022-12-07T13:59:07.234Z,7.90
2022-12-07T14:01:36.216Z,7.80
2022-12-07T14:04:37.753Z,7.80
2022-12-07T14:07:22.893Z,7.60
2022-12-07T14:10:01.597Z,7.50
2022-12-07T14:12:32.143Z,7.60
2022-12-07T14:15:03.784Z,7.40
2022-12-07T14:17:32.951Z,7.20
2022-12-07T14:20:02.434Z,7.10
2022-12-07T14:22:36.232Z,7.30
2022-12-07T14:25:27.784Z,7.10
2022-12-07T14:27:59.541Z,7.10
2022-12-07T14:30:30.769Z,6.90
2022-12-07T14:33:02.034Z,7.00
2022-12-07T14:35:32.545Z,6.80
2022-12-07T14:38:01.729Z,6.80
2022-12-07T14:40:34.093Z,6.90
2022-12-07T14:43:05.572Z,6.90
2022-12-07T14:45:37.102Z,6.90
2022-12-07T14:53:51.406Z,6.70
2022-12-07T14:56:25.339Z,6.50
2022-12-07T14:58:53.879Z,6.70
2022-12-07T15:01:22.614Z,6.50
2022-12-07T15:03:51.483Z,6.40
2022-12-07T15:06:20.775Z,6.40
2022-12-07T15:08:49.246Z,6.40
2022-12-07T15:11:19.358Z,6.40
2022-12-07T15:14:06.923Z,6.40
2022-12-07T15:16:59.544Z,6.50
2022-12-07T15:19:28.568Z,6.40
2022-12-07T15:21:59.307Z,6.50
2022-12-07T15:24:28.544Z,6.30
2022-12-07T15:26:57.679Z,6.30
2022-12-07T15:29:27.860Z,6.10
2022-12-07T15:31:58.117Z,6.30
2022-12-07T15:34:31.890Z,6.40
2022-12-07T15:37:04.638Z,6.20
2022-12-07T15:39:44.268Z,6.10
2022-12-07T15:42:12.662Z,6.20
2022-12-07T15:45:00.599Z,6.30
2022-12-07T15:47:29.231Z,6.20
2022-12-07T15:49:58.059Z,6.10
2022-12-07T15:52:26.805Z,6.20
2022-12-07T15:54:55.591Z,6.10
2022-12-07T15:57:25.771Z,6.10
2022-12-07T16:00:02.100Z,6.00
2022-12-07T16:02:36.533Z,6.00
2022-12-07T16:05:09.357Z,6.10
2022-12-07T16:07:38.396Z,6.00
2022-12-07T16:10:08.789Z,6.10
2022-12-07T16:12:37.619Z,6.10
2022-12-07T16:15:08.995Z,6.00
2022-12-07T16:17:37.428Z,6.20
2022-12-07T16:20:07.506Z,6.00
2022-12-07T16:22:36.273Z,6.00
2022-12-07T16:25:05.919Z,6.00
2022-12-07T16:27:34.472Z,6.00
2022-12-07T16:30:02.885Z,6.00
2022-12-07T16:32:32.987Z,6.00
2022-12-07T16:35:01.989Z,5.80
2022-12-07T16:37:31.173Z,5.90
2022-12-07T16:39:59.697Z,5.80
2022-12-07T16:42:28.680Z,5.80
2022-12-07T16:44:57.405Z,5.80
2022-12-07T16:47:25.970Z,5.80
2022-12-07T16:49:56.066Z,6.00
2022-12-07T16:52:24.577Z,6.00
2022-12-07T16:54:53.285Z,5.90
2022-12-07T16:57:24.210Z,5.90
2022-12-07T16:59:56.653Z,5.90
2022-12-07T17:02:25.160Z,5.80
2022-12-07T17:04:54.894Z,5.90
2022-12-07T17:07:23.241Z,5.80
2022-12-07T17:09:51.762Z,5.60
2022-12-07T17:12:21.362Z,5.80
2022-12-07T17:15:16.412Z,5.80
2022-12-07T17:17:46.811Z,5.80
2022-12-07T17:20:18.363Z,5.80
2022-12-07T17:22:47.663Z,5.80
2022-12-07T17:25:16.485Z,5.80
2022-12-07T17:27:47.928Z,5.70
2022-12-07T17:30:17.177Z,5.70
2022-12-07T17:32:46.020Z,5.70
2022-12-07T17:35:14.464Z,5.60
2022-12-07T17:37:50.472Z,5.60
2022-12-07T17:40:19.788Z,5.60
2022-12-07T17:42:51.351Z,5.60
2022-12-07T17:45:19.854Z,5.70
2022-12-07T17:47:48.173Z,5.70
2022-12-07T17:50:16.600Z,5.70
2022-12-07T17:53:03.800Z,5.50
2022-12-07T17:55:54.522Z,5.80
2022-12-07T17:58:23.742Z,5.70
2022-12-07T18:00:53.991Z,5.70
2022-12-07T18:03:25.583Z,5.70
2022-12-07T18:05:54.279Z,5.80
2022-12-07T18:08:24.919Z,5.50
2022-12-07T18:11:00.205Z,5.80
2022-12-07T18:13:38.171Z,5.60
2022-12-07T18:16:09.696Z,5.70
2022-12-07T18:18:38.612Z,5.50
2022-12-07T18:21:09.471Z,5.90
2022-12-07T18:23:41.603Z,5.70
2022-12-07T18:26:13.506Z,5.80
2022-12-07T18:28:42.585Z,5.60
2022-12-07T18:31:15.344Z,5.40
2022-12-07T18:33:45.469Z,5.60
2022-12-07T18:36:14.870Z,5.70
2022-12-07T18:38:46.331Z,5.60
2022-12-07T18:41:16.852Z,5.60
2022-12-07T18:43:45.333Z,5.70
2022-12-07T18:46:14.502Z,5.40
2022-12-07T18:48:43.184Z,5.60
2022-12-07T18:51:14.317Z,5.70
2022-12-07T18:53:44.615Z,5.60
2022-12-07T18:56:15.425Z,5.70
2022-12-07T18:58:59.263Z,5.70
2022-12-07T19:01:28.295Z,5.60
2022-12-07T19:03:56.978Z,5.50
2022-12-07T19:06:25.403Z,5.50
2022-12-07T19:08:56.185Z,5.60
2022-12-07T19:11:43.854Z,5.60
2022-12-07T19:14:13.114Z,5.60
2022-12-07T19:16:43.488Z,5.80
2022-12-07T19:19:12.038Z,5.50
2022-12-07T19:21:40.492Z,5.60
2022-12-07T19:24:10.748Z,5.60
2022-12-07T19:26:40.419Z,5.40
2022-12-07T19:29:09.382Z,5.70
2022-12-07T19:31:38.180Z,5.70
2022-12-07T19:34:10.763Z,5.50
2022-12-07T19:36:39.597Z,5.60
2022-12-07T19:39:12.882Z,5.60
2022-12-07T19:41:45.117Z,5.60
2022-12-07T19:44:14.988Z,5.50
2022-12-07T19:46:45.833Z,5.50
2022-12-07T19:49:16.450Z,5.50
2022-12-07T19:51:46.765Z,5.40
2022-12-07T19:54:17.613Z,5.40
2022-12-07T19:56:48.660Z,5.50
2022-12-07T19:59:18.965Z,5.80
2022-12-07T20:01:48.743Z,5.70
2022-12-07T20:04:19.856Z,5.70
2022-12-07T20:06:54.381Z,5.70
2022-12-07T20:09:23.758Z,5.70
2022-12-07T20:12:11.315Z,5.60
2022-12-07T20:14:39.877Z,5.60
2022-12-07T20:17:09.292Z,5.60
2022-12-07T20:19:38.580Z,5.60
2022-12-07T20:22:07.289Z,5.60
2022-12-07T20:24:37.384Z,5.30
2022-12-07T20:27:07.586Z,5.50
2022-12-07T20:29:38.240Z,5.50
2022-12-07T20:32:07.338Z,5.60
2022-12-07T20:34:36.155Z,5.50
2022-12-07T20:37:04.494Z,5.60
2022-12-07T20:39:33.871Z,5.60
2022-12-07T20:42:19.667Z,5.60
2022-12-07T20:44:49.640Z,5.40
2022-12-07T20:47:17.911Z,5.40
2022-12-07T20:49:46.315Z,5.50
2022-12-07T20:52:14.953Z,5.50
2022-12-07T20:54:43.758Z,5.50
2022-12-07T20:57:12.160Z,5.50
2022-12-07T20:59:41.956Z,5.60
2022-12-07T21:02:14.697Z,5.50
2022-12-07T21:04:44.605Z,5.50
2022-12-07T21:07:13.987Z,5.50
2022-12-07T21:09:42.650Z,5.40
2022-12-07T21:12:11.533Z,5.40
2022-12-07T21:14:42.346Z,5.50
2022-12-07T21:17:10.972Z,5.50
2022-12-07T21:19:41.495Z,5.50
2022-12-07T21:22:09.874Z,5.40
2022-12-07T21:24:39.635Z,5.40
2022-12-07T21:27:10.216Z,5.50
2022-12-07T21:29:44.390Z,5.40
2022-12-07T21:32:13.731Z,5.20
2022-12-07T21:34:43.734Z,5.40
2022-12-07T21:37:12.160Z,5.40
2022-12-07T21:39:40.888Z,5.40
2022-12-07T21:42:09.169Z,5.40
2022-12-07T21:44:37.808Z,5.40
2022-12-07T21:47:06.827Z,5.50
2022-12-07T21:49:36.499Z,5.30
2022-12-07T21:52:06.738Z,5.30
2022-12-07T21:54:35.759Z,5.40
2022-12-07T21:57:04.165Z,5.20
2022-12-07T21:59:33.711Z,5.50
2022-12-07T22:02:02.243Z,5.40
2022-12-07T22:04:30.890Z,5.40
2022-12-07T22:06:59.391Z,5.30
2022-12-07T22:09:30.798Z,5.40
2022-12-07T22:12:02.564Z,5.50
2022-12-07T22:14:52.351Z,5.40
2022-12-07T22:17:23.297Z,5.30
2022-12-07T22:19:51.851Z,5.50
2022-12-07T22:22:22.184Z,5.60
2022-12-07T22:24:52.479Z,5.50
2022-12-07T22:27:20.908Z,5.30
2022-12-07T22:29:49.399Z,5.40
2022-12-07T22:32:47.241Z,5.20
2022-12-07T22:35:09.608Z,5.50
2022-12-07T22:37:37.996Z,5.30
2022-12-07T22:40:09.269Z,5.50
2022-12-07T22:42:38.154Z,5.30
2022-12-07T22:45:07.751Z,5.40
2022-12-07T22:47:36.352Z,5.40
2022-12-07T22:50:07.025Z,5.20
2022-12-07T22:52:35.493Z,5.40
2022-12-07T22:55:04.330Z,5.20
2022-12-07T22:57:35.560Z,5.40
2022-12-07T23:00:04.713Z,5.40
2022-12-07T23:02:33.328Z,5.50
2022-12-07T23:05:02.142Z,5.40
2022-12-07T23:07:31.831Z,5.40
2022-12-07T23:10:01.349Z,5.40
2022-12-07T23:12:47.383Z,5.50
2022-12-07T23:15:17.470Z,5.20
2022-12-07T23:17:46.727Z,5.30
2022-12-07T23:20:15.443Z,5.50
2022-12-07T23:22:44.226Z,5.30
2022-12-07T23:25:12.619Z,5.40
2022-12-07T23:27:41.119Z,5.30
2022-12-07T23:30:10.899Z,5.30
2022-12-07T23:32:40.956Z,5.30
2022-12-07T23:35:22.389Z,5.40
2022-12-07T23:37:51.446Z,5.40
2022-12-07T23:40:31.835Z,5.40
2022-12-07T23:43:07.494Z,5.50
2022-12-07T23:45:36.288Z,5.50
2022-12-07T23:48:06.670Z,5.40
2022-12-07T23:50:35.330Z,5.40
2022-12-07T23:53:04.111Z,5.40
2022-12-07T23:55:32.699Z,5.40
2022-12-07T23:58:04.393Z,5.20
